Current Conditions
Partly Cloudy
Conditions



Pressure
29.82 (inHG) - 1009.92 (mb)
Visibility

10.0 (km) - 6.2 (miles)
   Temperature
61  °F
Temperature
45  °F
Dewpoint
55  %
 Humidity
   Wind Speed
10  mph
9  kts
16  km/h
4.5  m/s
   Wind Direction
N
45°
E
90°
135°
S
180°
225°
W
270°
315°
 130°

South East
   Airport Data
LTBA
Istanbul Atatürk Airport
Metar :LTBA 101820Z 13009KT 9999 FEW040 BKN200 16/07 Q1010 NOSIG RMK RWY23 13007KT
Thu 10th December 11:20 am
   Raw Metar Info
Raw METAR is the most common format in the world for the transmission of observational weather data. It is highly standardized through the International Civil Aviation Organization (ICAO), which allows it to be understood throughout most of the world.
   API Info
Data Provided by
https://www.checkwx.com/weather/KCOS

Aviation Weather providing METAR, TAF, AIRMET, SIGMET and OUTLOOK Weather Reports
   © Info
CSS/SVG/PHP scripts were developed by weather34.com for use in the weather34 template © 2015-2021

Guide Info provided by Metar-Wikipedia